• Join FlightAware (Why Join?)
  • Login
  • US Flag 
11:58PM EDT


 

Airport Tracker/Info


-or-


 

Live Flight TrackerFlight Track Log ✈ UAL4693 ✈ 06-Aug-2013 ✈ KRIC - KCLE

Flight Track Log - Related Links

Times and Time Zones

All times are in EDT time to prevent confusion due to time zone crossing. See the UAL4693 flight status page for this flight to view local times or setup timezone preferences in your user account.

Time Position Orientation Groundspeed Altitude Reporting Facility
EDT Latitude Longitude Course Direction KTS MPH feet Rate Location/Type
02:56PM 37.4500 -77.3667 310° West 207 238 2,600  Level Potomac TRACON
02:56PM 37.4603 -77.4364 281° West 246 283 3,900 2,160 Climbing Washington Center
02:57PM 37.5094 -77.5003 314° West 252 290 6,500 2,340 Climbing Washington Center
02:58PM 37.7173 -77.6759 310° West  Level FlightAware Approximate
02:58PM 37.5583 -77.5644 314° West 252 290 8,700  Level Washington Center
02:59PM 37.7772 -77.7620 307° West  Level FlightAware Approximate
02:59PM 37.6117 -77.6314 315° West 262 302 9,200  Level Washington Center
03:00PM 37.8323 -77.8538 307° West  Level FlightAware Approximate
03:00PM 37.6647 -77.7011 314° West 267 307 11,200  Level Washington Center
03:01PM 37.8815 -77.9471 310° West  Level FlightAware Approximate
03:01PM 37.7236 -77.7761 315° West 279 321 12,500  Level Washington Center
03:02PM 37.7850 -77.8542 315° West 295 339 14,200 1,440 Climbing Washington Center
03:03PM 37.8339 -77.9161 315° West 308 354 15,500 1,440 Climbing Washington Center
03:04PM 37.9089 -78.0131 314° West 308 354 17,100 1,560 Climbing Washington Center
03:05PM 37.9697 -78.0967 313° West 313 360 18,600 1,560 Climbing Washington Center
03:06PM 38.0458 -78.1572 328° Northwest 319 367 20,300 1,800 Climbing Washington Center
03:07PM 38.1394 -78.1631 357° North 308 354 22,200 1,440 Climbing Washington Center
03:08PM 38.2311 -78.1689 357° North 313 360 23,200 1,200 Climbing Washington Center
03:09PM 38.3228 -78.1747 357° North 326 375 24,700 1,440 Climbing Washington Center
03:10PM 38.4186 -78.1781 358° North 331 381 26,200 1,140 Climbing Washington Center
03:11PM 38.5144 -78.1867 356° North 331 381 27,000 360 Climbing Washington Center
03:12PM 38.6164 -78.1931 357° North 343 395 27,000  Level Washington Center
03:13PM 38.7247 -78.1994 357° North 367 422 27,000  Level Washington Center
03:14PM 38.8328 -78.2058 357° North 383 441 27,000  Level Washington Center
03:15PM 38.9306 -78.2147 356° North 388 447 27,000  Level Washington Center
03:16PM 39.0408 -78.2267 355° North 388 447 27,000  Level Washington Center
03:17PM 39.1511 -78.2386 355° North 388 447 27,000  Level Washington Center
03:18PM 39.2572 -78.2506 355° North 383 441 27,000  Level Washington Center
03:19PM 39.3653 -78.2600 356° North 383 441 27,000  Level Washington Center
03:22PM 39.6208 -78.2842 356° North 388 447 27,000  Level Cleveland Center
03:23PM 39.7294 -78.2967 355° North 388 447 27,000  Level Cleveland Center
03:24PM 39.8175 -78.3236 347° North 376 433 27,000  Level Cleveland Center
03:25PM 39.9025 -78.4044 324° Northwest 366 421 27,000  Level Cleveland Center
03:26PM 39.9833 -78.4886 321° Northwest 367 422 27,000  Level Cleveland Center
03:27PM 40.0661 -78.5728 322° Northwest 372 428 27,000  Level Cleveland Center
03:28PM 40.1469 -78.6600 320° Northwest 377 434 27,000 -120 Level Cleveland Center
03:29PM 40.2275 -78.7447 321° Northwest 377 434 26,800 -540 Descending Cleveland Center
03:30PM 40.3103 -78.8350 320° Northwest 382 440 26,000 -420 Descending Cleveland Center
03:31PM 40.3764 -78.9425 309° West 382 440 26,000  Level Cleveland Center
03:32PM 40.4406 -79.0553 307° West 382 440 26,000  Level Cleveland Center
03:33PM 40.5025 -79.1686 306° West 382 440 26,000  Level Cleveland Center
03:34PM 40.5664 -79.2822 307° West 382 440 26,000  Level Cleveland Center
03:35PM 40.6322 -79.3931 308° West 382 440 26,000 -300 Level Cleveland Center
03:36PM 40.6958 -79.5125 305° West 387 445 25,400 -900 Descending Cleveland Center
03:37PM 40.7614 -79.6264 307° West 387 445 24,200 -720 Descending Cleveland Center
03:38PM 40.8250 -79.7436 306° West 387 445 24,000 -120 Descending Cleveland Center
03:39PM 40.8903 -79.8608 306° West 392 451 24,000  Level Cleveland Center
03:40PM 40.9558 -79.9783 306° West 392 451 24,000  Level Cleveland Center
03:41PM 41.0272 -80.1097 306° West 398 458 24,000  Level Cleveland Center
03:42PM 41.0903 -80.2250 306° West 398 458 24,000  Level Cleveland Center
03:43PM 41.1531 -80.3431 305° West 398 458 24,000 -300 Level Cleveland Center
03:44PM 41.2117 -80.4533 305° West 398 458 23,400 -1,560 Descending Cleveland Center
03:45PM 41.2742 -80.5692 306° West 398 458 20,900 -2,520 Descending Cleveland Center
03:46PM 41.3344 -80.6883 304° West 398 458 18,400 -2,460 Descending Cleveland Center
03:47PM 41.3803 -80.8044 298° West 375 432 16,000 -2,400 Descending Cleveland Center
03:48PM 41.4236 -80.9208 296° West 361 415 13,700 -2,160 Descending Cleveland Center
03:49PM 41.4650 -81.0264 298° West 336 387 11,700 -1,800 Descending Cleveland Center
03:50PM 41.5000 -81.1267 295° West 307 353 10,100 -900 Descending Cleveland Center
03:51PM 41.5119 -81.2236 279° West 275 316 10,000 -240 Descending Cleveland Center
03:52PM 41.5072 -81.3483 267° West 265 305 9,600 -900 Descending Cleveland Center
03:53PM 41.5025 -81.4289 266° West 270 311 8,200 -1,920 Descending Cleveland Center
03:54PM 41.4975 -81.5256 266° West 264 304 6,100 -1,980 Descending Cleveland Center
03:55PM 41.4925 -81.6200 266° West 264 304 4,300 -1,320 Descending Cleveland Center
03:56PM 41.4875 -81.7058 266° West 251 289 3,500 -960 Descending Cleveland Center
03:57PM 41.4639 -81.7719 245° Southwest 159 183 2,300 -900 Descending Cleveland Center
03:58PM 41.4342 -81.8156 228° Southwest 137 158 1,500 -720 Descending Cleveland Center